Time,TemperatureF,DewpointF,PressureIn,WindDirection,WindDirectionDegrees,WindSpeedMPH,WindSpeedGustMPH,Humidity,HourlyPrecipIn,Conditions,Clouds,dailyrainin,SoftwareType,DateUTC
2013-02-08 00:01:00,31.1,22.1,29.94,SSW,209,0.0,0.0,69,0.00,,---,0.00,VWS V14.01,2013-02-08 08:01:00,
2013-02-08 00:07:00,31.1,22.1,29.94,SSW,209,0.0,0.0,69,0.00,,---,0.00,VWS V14.01,2013-02-08 08:07:00,
2013-02-08 00:13:00,30.9,22.3,29.94,SSW,208,0.0,0.0,70,0.00,,---,0.00,VWS V14.01,2013-02-08 08:13:00,
2013-02-08 00:19:00,30.9,22.3,29.94,SSW,209,0.0,0.0,70,0.00,,---,0.00,VWS V14.01,2013-02-08 08:19:00,
2013-02-08 00:25:00,31.3,22.6,29.94,SSW,209,0.0,0.0,70,0.00,,---,0.00,VWS V14.01,2013-02-08 08:25:00,
2013-02-08 00:31:00,31.3,23.0,29.94,SSW,209,0.0,0.0,71,0.00,,---,0.00,VWS V14.01,2013-02-08 08:31:00,
2013-02-08 00:37:00,31.5,23.2,29.94,SSW,209,0.0,0.0,71,0.00,,---,0.00,VWS V14.01,2013-02-08 08:37:00,
2013-02-08 00:43:00,31.6,23.3,29.94,SSW,209,0.0,0.0,71,0.00,,---,0.00,VWS V14.01,2013-02-08 08:43:00,
2013-02-08 00:49:00,31.8,23.8,29.94,SSW,208,0.0,0.0,72,0.00,,---,0.00,VWS V14.01,2013-02-08 08:49:00,
2013-02-08 00:55:00,32.0,24.0,29.94,SSW,209,0.0,0.0,72,0.00,,---,0.00,VWS V14.01,2013-02-08 08:55:00,
2013-02-08 01:01:00,32.2,24.2,29.94,SSW,208,0.0,0.0,72,0.00,,---,0.00,VWS V14.01,2013-02-08 09:01:00,
2013-02-08 01:07:00,32.2,24.2,29.94,SSW,209,0.0,0.0,72,0.00,,---,0.00,VWS V14.01,2013-02-08 09:07:00,
2013-02-08 01:13:00,32.2,24.2,29.94,SSW,209,0.0,0.0,72,0.00,,---,0.00,VWS V14.01,2013-02-08 09:13:00,
2013-02-08 01:19:00,32.2,24.2,29.94,SSW,209,0.0,0.0,72,0.00,,---,0.00,VWS V14.01,2013-02-08 09:19:00,
2013-02-08 01:25:00,32.2,24.5,29.94,SSW,209,0.0,0.0,73,0.00,,---,0.00,VWS V14.01,2013-02-08 09:25:00,
2013-02-08 01:31:00,32.2,24.2,29.94,SSW,209,0.0,0.0,72,0.00,,---,0.00,VWS V14.01,2013-02-08 09:31:00,
2013-02-08 01:37:00,31.8,23.8,29.94,SSW,209,0.0,0.0,72,0.00,,---,0.00,VWS V14.01,2013-02-08 09:37:00,
2013-02-08 01:43:00,31.8,23.8,29.94,SSW,209,0.0,0.0,72,0.00,,---,0.00,VWS V14.01,2013-02-08 09:43:00,
2013-02-08 01:49:00,31.6,23.7,29.94,SSW,209,0.0,0.0,72,0.00,,---,0.00,VWS V14.01,2013-02-08 09:49:00,
2013-02-08 01:55:00,31.6,23.7,29.97,SSW,209,0.0,0.0,72,0.00,,---,0.00,VWS V14.01,2013-02-08 09:55:00,
2013-02-08 02:01:00,31.6,23.7,29.97,SSW,209,0.0,0.0,72,0.00,,---,0.00,VWS V14.01,2013-02-08 10:01:00,
2013-02-08 02:07:00,31.5,23.2,29.97,SSW,209,0.0,0.0,71,0.00,,---,0.00,VWS V14.01,2013-02-08 10:07:00,
2013-02-08 02:13:00,31.3,23.0,29.97,SSW,209,0.0,0.0,71,0.00,,---,0.00,VWS V14.01,2013-02-08 10:13:00,
2013-02-08 02:19:00,31.3,23.0,29.97,SSW,209,0.0,0.0,71,0.00,,---,0.00,VWS V14.01,2013-02-08 10:19:00,
2013-02-08 02:25:00,31.3,23.0,29.94,SSW,209,0.0,0.0,71,0.00,,---,0.00,VWS V14.01,2013-02-08 10:25:00,
2013-02-08 02:31:00,31.3,23.0,29.94,SSW,209,0.0,0.0,71,0.00,,---,0.00,VWS V14.01,2013-02-08 10:31:00,
2013-02-08 02:37:00,31.1,22.8,29.94,SSW,209,0.0,0.0,71,0.00,,---,0.00,VWS V14.01,2013-02-08 10:37:00,
2013-02-08 02:44:00,31.1,22.8,29.94,SSW,209,0.0,0.0,71,0.00,,---,0.00,VWS V14.01,2013-02-08 10:44:00,
2013-02-08 02:49:00,30.9,22.6,29.94,SSW,209,0.0,0.0,71,0.00,,---,0.00,VWS V14.01,2013-02-08 10:49:00,
2013-02-08 02:55:00,30.9,22.6,29.94,SSW,209,0.0,0.0,71,0.00,,---,0.00,VWS V14.01,2013-02-08 10:55:00,
2013-02-08 03:01:00,30.9,22.6,29.94,SSW,209,0.0,0.0,71,0.00,,---,0.00,VWS V14.01,2013-02-08 11:01:00,
2013-02-08 03:07:00,30.9,22.6,29.97,SSW,209,0.0,0.0,71,0.00,,---,0.00,VWS V14.01,2013-02-08 11:07:00,
2013-02-08 03:13:00,30.7,22.5,29.97,SSW,209,0.0,0.0,71,0.00,,---,0.00,VWS V14.01,2013-02-08 11:13:00,
2013-02-08 03:19:00,30.6,22.0,29.97,SSW,209,0.0,0.0,70,0.00,,---,0.00,VWS V14.01,2013-02-08 11:19:00,
2013-02-08 03:25:00,30.6,22.3,29.97,SSW,209,0.0,0.0,71,0.00,,---,0.00,VWS V14.01,2013-02-08 11:25:00,
2013-02-08 03:31:00,30.6,22.0,29.97,SSW,209,0.0,0.0,70,0.00,,---,0.00,VWS V14.01,2013-02-08 11:31:00,
2013-02-08 03:37:00,30.4,21.8,29.97,SSW,209,0.0,0.0,70,0.00,,---,0.00,VWS V14.01,2013-02-08 11:37:00,
2013-02-08 03:43:00,30.4,21.8,29.97,SSW,209,0.0,0.0,70,0.00,,---,0.00,VWS V14.01,2013-02-08 11:43:00,
2013-02-08 03:50:00,30.4,21.8,29.97,SSW,209,0.0,0.0,70,0.00,,---,0.00,VWS V14.01,2013-02-08 11:50:00,
2013-02-08 03:55:00,30.2,21.6,29.97,SSW,209,0.0,0.0,70,0.00,,---,0.00,VWS V14.01,2013-02-08 11:55:00,
2013-02-08 04:01:00,30.2,21.6,29.97,SSW,209,0.0,0.0,70,0.00,,---,0.00,VWS V14.01,2013-02-08 12:01:00,
2013-02-08 04:07:00,30.2,21.6,29.97,SSW,209,0.0,0.0,70,0.00,,---,0.00,VWS V14.01,2013-02-08 12:07:00,
2013-02-08 04:13:00,30.2,21.6,29.97,SSW,209,0.0,0.0,70,0.00,,---,0.00,VWS V14.01,2013-02-08 12:13:00,
2013-02-08 04:19:00,30.0,21.4,29.97,SSW,209,0.0,0.0,70,0.00,,---,0.00,VWS V14.01,2013-02-08 12:19:00,
2013-02-08 04:25:00,30.0,21.4,29.97,SSW,209,0.0,0.0,70,0.00,,---,0.00,VWS V14.01,2013-02-08 12:25:00,
2013-02-08 04:32:00,30.2,21.6,29.97,SSW,209,0.0,0.0,70,0.00,,---,0.00,VWS V14.01,2013-02-08 12:32:00,
2013-02-08 04:37:00,30.0,21.4,29.97,SSW,209,0.0,0.0,70,0.00,,---,0.00,VWS V14.01,2013-02-08 12:37:00,
2013-02-08 04:43:00,30.0,21.4,29.97,SSW,209,0.0,0.0,70,0.00,,---,0.00,VWS V14.01,2013-02-08 12:43:00,
2013-02-08 04:50:00,30.0,21.1,29.97,SSW,209,0.0,0.0,69,0.00,,---,0.00,VWS V14.01,2013-02-08 12:50:00,
2013-02-08 04:55:00,29.8,20.9,30.00,SSW,209,0.0,0.0,69,0.00,,---,0.00,VWS V14.01,2013-02-08 12:55:00,
2013-02-08 05:01:00,29.7,20.8,30.00,SSW,209,0.0,0.0,69,0.00,,---,0.00,VWS V14.01,2013-02-08 13:01:00,
2013-02-08 05:07:00,29.8,20.9,30.00,SSW,209,0.0,0.0,69,0.00,,---,0.00,VWS V14.01,2013-02-08 13:07:00,
2013-02-08 05:14:00,30.2,21.3,30.00,SSW,209,0.0,0.0,69,0.00,,---,0.00,VWS V14.01,2013-02-08 13:14:00,
2013-02-08 05:19:00,30.4,21.4,30.00,SSW,209,0.0,0.0,69,0.00,,---,0.00,VWS V14.01,2013-02-08 13:19:00,
2013-02-08 05:25:00,30.4,21.8,30.00,SSW,209,0.0,0.0,70,0.00,,---,0.00,VWS V14.01,2013-02-08 13:25:00,
2013-02-08 05:31:00,30.7,22.1,30.00,SSW,209,0.0,0.0,70,0.00,,---,0.00,VWS V14.01,2013-02-08 13:31:00,
2013-02-08 05:37:00,30.9,22.6,30.00,SSW,209,0.0,0.0,71,0.00,,---,0.00,VWS V14.01,2013-02-08 13:37:00,
2013-02-08 05:43:00,30.9,22.6,30.00,SSW,209,0.0,0.0,71,0.00,,---,0.00,VWS V14.01,2013-02-08 13:43:00,
2013-02-08 05:49:00,31.1,22.8,30.00,SSW,209,0.0,0.0,71,0.00,,---,0.00,VWS V14.01,2013-02-08 13:49:00,
2013-02-08 05:55:00,31.1,22.8,30.00,SSW,209,0.0,0.0,71,0.00,,---,0.00,VWS V14.01,2013-02-08 13:55:00,
2013-02-08 06:01:00,31.3,23.3,30.00,SSW,209,0.0,0.0,72,0.00,,---,0.00,VWS V14.01,2013-02-08 14:01:00,
2013-02-08 06:07:00,31.3,23.3,30.00,SSW,209,0.0,0.0,72,0.00,,---,0.00,VWS V14.01,2013-02-08 14:07:00,
2013-02-08 06:13:00,31.3,23.3,30.00,SSW,209,0.0,0.0,72,0.00,,---,0.00,VWS V14.01,2013-02-08 14:13:00,
2013-02-08 06:19:00,31.3,23.3,30.00,SSW,209,0.0,0.0,72,0.00,,---,0.00,VWS V14.01,2013-02-08 14:19:00,
2013-02-08 06:25:00,31.5,23.5,30.00,SSW,209,0.0,0.0,72,0.00,,---,0.00,VWS V14.01,2013-02-08 14:25:00,
2013-02-08 06:31:00,31.6,24.0,30.00,SSW,209,0.0,0.0,73,0.00,,---,0.00,VWS V14.01,2013-02-08 14:31:00,
2013-02-08 06:37:00,31.6,24.0,30.00,SSW,209,0.0,0.0,73,0.00,,---,0.00,VWS V14.01,2013-02-08 14:37:00,
2013-02-08 06:43:00,31.8,24.2,30.00,SSW,209,0.0,0.0,73,0.00,,---,0.00,VWS V14.01,2013-02-08 14:43:00,
2013-02-08 06:49:00,31.8,24.2,30.00,SSW,209,0.0,0.0,73,0.00,,---,0.00,VWS V14.01,2013-02-08 14:49:00,
2013-02-08 06:55:00,31.8,24.2,30.00,SSW,208,0.0,0.0,73,0.00,,---,0.00,VWS V14.01,2013-02-08 14:55:00,
2013-02-08 07:01:00,31.6,24.0,30.00,SSW,209,0.0,0.0,73,0.00,,---,0.00,VWS V14.01,2013-02-08 15:01:00,
2013-02-08 07:07:00,31.5,23.5,30.00,SSW,209,0.0,0.0,72,0.00,,---,0.00,VWS V14.01,2013-02-08 15:07:00,
2013-02-08 07:13:00,31.3,23.3,30.00,SSW,209,0.0,0.0,72,0.00,,---,0.00,VWS V14.01,2013-02-08 15:13:00,
2013-02-08 07:19:00,31.1,23.1,30.00,SSW,209,0.0,0.0,72,0.00,,---,0.00,VWS V14.01,2013-02-08 15:19:00,
2013-02-08 07:25:00,30.9,23.0,30.00,SSW,209,0.0,0.0,72,0.00,,---,0.00,VWS V14.01,2013-02-08 15:25:00,
2013-02-08 07:31:00,30.9,22.6,30.00,SSW,209,0.0,0.0,71,0.00,,---,0.00,VWS V14.01,2013-02-08 15:31:00,
2013-02-08 07:37:00,30.7,22.5,30.00,SSW,209,0.0,0.0,71,0.00,,---,0.00,VWS V14.01,2013-02-08 15:37:00,
2013-02-08 07:43:00,30.7,22.5,30.00,SSW,209,0.0,0.0,71,0.00,,---,0.00,VWS V14.01,2013-02-08 15:43:00,
2013-02-08 07:49:00,30.6,22.3,30.00,SSW,209,0.0,0.0,71,0.00,,---,0.00,VWS V14.01,2013-02-08 15:49:00,
2013-02-08 07:55:00,30.7,22.5,30.00,SSW,209,0.0,0.0,71,0.00,,---,0.00,VWS V14.01,2013-02-08 15:55:00,
2013-02-08 08:01:00,31.1,23.1,30.00,SSW,209,0.0,0.0,72,0.00,,---,0.00,VWS V14.01,2013-02-08 16:01:00,
2013-02-08 08:07:00,31.1,23.1,30.00,SSW,208,0.0,0.0,72,0.00,,---,0.00,VWS V14.01,2013-02-08 16:07:00,
2013-02-08 08:13:00,31.3,23.3,30.00,SSW,209,0.0,0.0,72,0.00,,---,0.00,VWS V14.01,2013-02-08 16:13:00,
2013-02-08 08:20:00,31.3,23.3,30.00,SSW,209,0.0,0.0,72,0.00,,---,0.00,VWS V14.01,2013-02-08 16:20:00,
2013-02-08 08:25:00,31.3,23.0,30.00,SSW,209,0.0,0.0,71,0.00,,---,0.00,VWS V14.01,2013-02-08 16:25:00,
2013-02-08 08:31:00,31.5,23.2,30.00,SSW,209,0.0,0.0,71,0.00,,---,0.00,VWS V14.01,2013-02-08 16:31:00,
2013-02-08 08:37:00,32.0,24.0,30.03,SSW,209,0.0,0.0,72,0.00,,---,0.00,VWS V14.01,2013-02-08 16:37:00,
2013-02-08 08:43:00,32.2,24.2,30.03,SSW,209,0.0,0.0,72,0.00,,---,0.00,VWS V14.01,2013-02-08 16:43:00,
2013-02-08 08:49:00,32.5,24.5,30.03,SSW,209,0.0,0.0,72,0.00,,---,0.00,VWS V14.01,2013-02-08 16:49:00,
2013-02-08 08:55:00,32.5,24.5,30.03,SSW,209,0.0,0.0,72,0.00,,---,0.00,VWS V14.01,2013-02-08 16:55:00,
2013-02-08 09:02:00,32.9,25.2,30.03,SSW,209,0.0,0.0,73,0.00,,---,0.00,VWS V14.01,2013-02-08 17:02:00,
2013-02-08 09:07:00,33.3,25.6,30.03,SSW,209,0.0,0.0,73,0.00,,---,0.00,VWS V14.01,2013-02-08 17:07:00,
2013-02-08 09:13:00,33.6,25.9,30.03,SSW,209,0.0,0.0,73,0.00,,---,0.00,VWS V14.01,2013-02-08 17:13:00,
2013-02-08 09:19:00,33.6,25.9,30.03,SSW,209,0.0,0.0,73,0.00,,---,0.00,VWS V14.01,2013-02-08 17:19:00,
2013-02-08 09:25:00,34.0,26.2,30.03,SSW,209,0.0,0.0,73,0.00,,---,0.00,VWS V14.01,2013-02-08 17:25:00,
2013-02-08 09:31:00,34.2,26.4,30.03,SSW,209,0.0,0.0,73,0.00,,---,0.00,VWS V14.01,2013-02-08 17:31:00,
2013-02-08 09:37:00,34.3,26.6,30.03,SSW,209,0.0,0.0,73,0.00,,---,0.00,VWS V14.01,2013-02-08 17:37:00,
2013-02-08 09:44:00,34.5,26.8,30.03,SSW,209,0.0,0.0,73,0.00,,---,0.00,VWS V14.01,2013-02-08 17:44:00,
2013-02-08 09:49:00,34.7,27.0,30.03,SSW,208,0.0,0.0,73,0.00,,---,0.00,VWS V14.01,2013-02-08 17:49:00,
2013-02-08 09:55:00,34.9,27.1,30.03,SSW,209,0.0,0.0,73,0.00,,---,0.00,VWS V14.01,2013-02-08 17:55:00,
2013-02-08 10:01:00,35.1,27.3,30.03,SSW,209,0.0,0.0,73,0.00,,---,0.00,VWS V14.01,2013-02-08 18:01:00,
2013-02-08 10:07:00,35.4,27.6,30.03,SSW,209,0.0,0.0,73,0.00,,---,0.00,VWS V14.01,2013-02-08 18:07:00,
2013-02-08 10:13:00,35.6,27.8,30.03,SSW,209,0.0,0.0,73,0.00,,---,0.00,VWS V14.01,2013-02-08 18:13:00,
2013-02-08 10:19:00,35.8,28.0,30.03,SSW,209,0.0,0.0,73,0.00,,---,0.00,VWS V14.01,2013-02-08 18:19:00,
2013-02-08 10:25:00,36.1,28.0,30.06,SSW,209,0.0,0.0,72,0.00,,---,0.00,VWS V14.01,2013-02-08 18:25:00,
2013-02-08 10:31:00,36.3,28.5,30.06,SSW,209,0.0,0.0,73,0.00,,---,0.00,VWS V14.01,2013-02-08 18:31:00,
2013-02-08 10:40:00,36.7,28.9,30.03,SSW,209,0.0,0.0,73,0.00,,---,0.00,VWS V14.01,2013-02-08 18:40:00,
2013-02-08 10:45:00,36.7,28.5,30.03,SSW,209,0.0,0.0,72,0.00,,---,0.00,VWS V14.01,2013-02-08 18:45:00,
2013-02-08 10:51:00,36.9,28.7,30.03,SSW,209,0.0,0.0,72,0.00,,---,0.00,VWS V14.01,2013-02-08 18:51:00,
2013-02-08 10:57:00,37.0,28.9,30.03,SSW,209,0.0,0.0,72,0.00,,---,0.00,VWS V14.01,2013-02-08 18:57:00,
2013-02-08 11:03:00,37.2,29.0,30.03,SSW,209,0.0,0.0,72,0.00,,---,0.00,VWS V14.01,2013-02-08 19:03:00,
2013-02-08 11:09:00,37.4,28.9,30.03,SSW,209,0.0,0.0,71,0.00,,---,0.00,VWS V14.01,2013-02-08 19:09:00,
2013-02-08 11:15:00,37.6,29.0,30.03,SSW,209,0.0,0.0,71,0.00,,---,0.00,VWS V14.01,2013-02-08 19:15:00,
2013-02-08 11:22:00,37.8,29.2,30.03,SSW,209,0.0,0.0,71,0.00,,---,0.00,VWS V14.01,2013-02-08 19:22:00,
2013-02-08 11:27:00,38.3,30.1,30.03,SSW,209,0.0,0.0,72,0.00,,---,0.00,VWS V14.01,2013-02-08 19:27:00,
2013-02-08 11:33:00,38.5,29.9,30.03,SSW,209,0.0,0.0,71,0.00,,---,0.00,VWS V14.01,2013-02-08 19:33:00,
2013-02-08 11:39:00,38.7,29.7,30.03,SSW,209,0.0,0.0,70,0.00,,---,0.00,VWS V14.01,2013-02-08 19:39:00,
2013-02-08 11:46:00,39.2,30.2,30.03,SSW,209,0.0,0.0,70,0.00,,---,0.00,VWS V14.01,2013-02-08 19:46:00,
2013-02-08 11:51:00,39.9,30.9,30.03,SSW,209,0.0,0.0,70,0.00,,---,0.00,VWS V14.01,2013-02-08 19:51:00,
2013-02-08 11:58:00,40.3,27.1,30.03,SSW,209,0.0,0.0,59,0.00,,---,0.00,VWS V14.01,2013-02-08 19:58:00,
2013-02-08 12:04:00,40.8,26.8,30.03,SSW,209,0.0,0.0,57,0.00,,---,0.00,VWS V14.01,2013-02-08 20:04:00,
2013-02-08 12:09:00,41.2,26.7,30.03,SSW,209,0.0,0.0,56,0.00,,---,0.00,VWS V14.01,2013-02-08 20:09:00,
2013-02-08 12:15:00,41.4,25.1,30.03,SSW,209,0.0,0.0,52,0.00,,---,0.00,VWS V14.01,2013-02-08 20:15:00,
2013-02-08 12:21:00,41.7,26.3,30.03,SSW,209,0.0,0.0,54,0.00,,---,0.00,VWS V14.01,2013-02-08 20:21:00,
2013-02-08 12:27:00,41.9,24.6,30.03,SSW,209,0.0,0.0,50,0.00,,---,0.00,VWS V14.01,2013-02-08 20:27:00,
2013-02-08 12:33:00,42.4,25.1,30.03,SSW,209,0.0,0.0,50,0.00,,---,0.00,VWS V14.01,2013-02-08 20:33:00,
2013-02-08 12:39:00,42.8,25.0,30.03,SSW,209,0.0,0.0,49,0.00,,---,0.00,VWS V14.01,2013-02-08 20:39:00,
2013-02-08 12:46:00,42.8,25.9,30.03,SSW,209,0.0,0.0,51,0.00,,---,0.00,VWS V14.01,2013-02-08 20:46:00,
2013-02-08 12:51:00,43.2,26.3,30.03,SSW,209,0.0,0.0,51,0.00,,---,0.00,VWS V14.01,2013-02-08 20:51:00,
2013-02-08 12:57:00,43.0,26.1,30.03,SSW,209,0.0,0.0,51,0.00,,---,0.00,VWS V14.01,2013-02-08 20:57:00,
2013-02-08 13:03:00,43.2,25.3,30.03,SSW,208,0.0,0.0,49,0.00,,---,0.00,VWS V14.01,2013-02-08 21:03:00,
2013-02-08 13:09:00,43.3,24.0,30.03,SSW,208,0.0,0.0,46,0.00,,---,0.00,VWS V14.01,2013-02-08 21:09:00,
2013-02-08 13:15:00,43.2,24.8,30.03,SSW,207,0.0,0.0,48,0.00,,---,0.00,VWS V14.01,2013-02-08 21:15:00,
2013-02-08 13:21:00,43.0,25.6,30.03,SSW,207,0.0,0.0,50,0.00,,---,0.00,VWS V14.01,2013-02-08 21:21:00,
2013-02-08 13:28:00,42.8,25.5,30.03,SSW,207,0.0,0.0,50,0.00,,---,0.00,VWS V14.01,2013-02-08 21:28:00,
2013-02-08 13:33:00,42.8,25.0,30.03,SSW,207,0.0,0.0,49,0.00,,---,0.00,VWS V14.01,2013-02-08 21:33:00,
2013-02-08 13:39:00,42.6,25.3,30.03,SSW,207,0.0,0.0,50,0.00,,---,0.00,VWS V14.01,2013-02-08 21:39:00,
2013-02-08 13:45:00,42.4,25.6,30.03,SSW,207,0.0,0.0,51,0.00,,---,0.00,VWS V14.01,2013-02-08 21:45:00,
2013-02-08 13:51:00,42.4,25.6,30.00,SSW,206,0.0,0.0,51,0.00,,---,0.00,VWS V14.01,2013-02-08 21:51:00,
2013-02-08 13:57:00,42.4,25.1,30.00,SSW,206,0.0,0.0,50,0.00,,---,0.00,VWS V14.01,2013-02-08 21:57:00,
2013-02-08 14:03:00,42.6,26.2,30.00,SSW,206,0.0,0.0,52,0.00,,---,0.00,VWS V14.01,2013-02-08 22:03:00,
2013-02-08 14:09:00,42.4,26.5,30.00,South,184,0.0,2.2,53,0.00,,---,0.00,VWS V14.01,2013-02-08 22:09:00,
2013-02-08 14:15:00,42.4,26.5,30.00,South,184,0.0,0.0,53,0.00,,---,0.00,VWS V14.01,2013-02-08 22:15:00,
2013-02-08 14:21:00,42.4,26.1,30.00,South,184,0.0,0.0,52,0.00,,---,0.00,VWS V14.01,2013-02-08 22:21:00,
2013-02-08 14:27:00,42.6,26.2,30.00,SSE,160,0.0,0.0,52,0.00,,---,0.00,VWS V14.01,2013-02-08 22:27:00,
2013-02-08 14:33:00,42.4,26.1,30.00,SSE,160,0.0,0.0,52,0.00,,---,0.00,VWS V14.01,2013-02-08 22:33:00,
2013-02-08 14:39:00,42.6,25.8,30.00,SSE,160,0.0,0.0,51,0.00,,---,0.00,VWS V14.01,2013-02-08 22:39:00,
2013-02-08 14:45:00,43.0,26.1,30.00,SSE,160,0.0,0.0,51,0.00,,---,0.00,VWS V14.01,2013-02-08 22:45:00,
2013-02-08 14:51:00,43.0,25.6,30.00,SSE,160,0.0,0.0,50,0.00,,---,0.00,VWS V14.01,2013-02-08 22:51:00,
2013-02-08 14:57:00,43.3,26.0,30.00,SSE,160,0.0,0.0,50,0.00,,---,0.00,VWS V14.01,2013-02-08 22:57:00,
2013-02-08 15:03:00,43.3,26.0,30.00,SSW,196,0.0,0.0,50,0.00,,---,0.00,VWS V14.01,2013-02-08 23:03:00,
2013-02-08 15:09:00,43.3,25.5,30.00,SSW,196,0.0,0.0,49,0.00,,---,0.00,VWS V14.01,2013-02-08 23:09:00,
2013-02-08 15:15:00,43.2,25.3,30.00,SSW,196,0.0,0.0,49,0.00,,---,0.00,VWS V14.01,2013-02-08 23:15:00,
2013-02-08 15:21:00,43.2,25.8,30.03,SSW,196,0.0,0.0,50,0.00,,---,0.00,VWS V14.01,2013-02-08 23:21:00,
2013-02-08 15:27:00,43.2,25.3,30.03,SSW,203,0.0,0.0,49,0.00,,---,0.00,VWS V14.01,2013-02-08 23:27:00,
2013-02-08 15:33:00,43.0,24.6,30.03,SSW,203,0.0,0.0,48,0.00,,---,0.00,VWS V14.01,2013-02-08 23:33:00,
2013-02-08 15:39:00,43.2,25.3,30.03,SSW,203,0.0,0.0,49,0.00,,---,0.00,VWS V14.01,2013-02-08 23:39:00,
2013-02-08 15:45:00,43.0,25.1,30.03,SSW,203,0.0,0.0,49,0.00,,---,0.00,VWS V14.01,2013-02-08 23:45:00,
2013-02-08 15:51:00,42.8,25.0,30.03,SSW,203,0.0,0.0,49,0.00,,---,0.00,VWS V14.01,2013-02-08 23:51:00,
2013-02-08 15:57:00,42.6,25.3,30.03,SSW,203,0.0,0.0,50,0.00,,---,0.00,VWS V14.01,2013-02-08 23:57:00,
2013-02-08 16:03:00,42.4,25.6,30.03,SSW,203,0.0,0.0,51,0.00,,---,0.00,VWS V14.01,2013-02-09 00:03:00,
2013-02-08 16:09:00,42.3,25.4,30.03,SSW,203,0.0,0.0,51,0.00,,---,0.00,VWS V14.01,2013-02-09 00:09:00,
2013-02-08 16:15:00,41.9,24.6,30.03,SSW,203,0.0,0.0,50,0.00,,---,0.00,VWS V14.01,2013-02-09 00:15:00,
2013-02-08 16:22:00,41.7,25.4,30.03,SSW,203,0.0,0.0,52,0.00,,---,0.00,VWS V14.01,2013-02-09 00:22:00,
2013-02-08 16:27:00,41.7,25.9,30.03,SSW,203,0.0,0.0,53,0.00,,---,0.00,VWS V14.01,2013-02-09 00:27:00,
2013-02-08 16:33:00,41.7,26.8,30.03,SSW,203,0.0,0.0,55,0.00,,---,0.00,VWS V14.01,2013-02-09 00:33:00,
2013-02-08 16:39:00,41.5,27.0,30.03,SSW,203,0.0,0.0,56,0.00,,---,0.00,VWS V14.01,2013-02-09 00:39:00,
2013-02-08 16:45:00,41.5,27.0,30.03,SSW,203,0.0,0.0,56,0.00,,---,0.00,VWS V14.01,2013-02-09 00:45:00,
2013-02-08 16:51:00,41.2,25.8,30.00,SSW,203,0.0,0.0,54,0.00,,---,0.00,VWS V14.01,2013-02-09 00:51:00,
2013-02-08 16:57:00,41.2,25.8,30.00,SSW,203,0.0,0.0,54,0.00,,---,0.00,VWS V14.01,2013-02-09 00:57:00,
2013-02-08 17:03:00,41.2,25.8,30.00,SSW,203,0.0,0.0,54,0.00,,---,0.00,VWS V14.01,2013-02-09 01:03:00,
2013-02-08 17:09:00,41.0,25.2,30.03,SSW,203,0.0,0.0,53,0.00,,---,0.00,VWS V14.01,2013-02-09 01:09:00,
2013-02-08 17:15:00,40.8,25.5,30.03,SSW,203,0.0,0.0,54,0.00,,---,0.00,VWS V14.01,2013-02-09 01:15:00,
2013-02-08 17:21:00,40.8,25.5,30.03,SSW,203,0.0,0.0,54,0.00,,---,0.00,VWS V14.01,2013-02-09 01:21:00,
2013-02-08 17:27:00,40.5,25.1,30.03,SSW,203,0.0,0.0,54,0.00,,---,0.00,VWS V14.01,2013-02-09 01:27:00,
2013-02-08 17:33:00,40.3,24.5,30.03,SSW,203,0.0,0.0,53,0.00,,---,0.00,VWS V14.01,2013-02-09 01:33:00,
2013-02-08 17:39:00,40.1,24.4,30.03,SSW,203,0.0,0.0,53,0.00,,---,0.00,VWS V14.01,2013-02-09 01:39:00,
2013-02-08 17:45:00,39.9,24.2,30.03,SSW,204,0.0,0.0,53,0.00,,---,0.00,VWS V14.01,2013-02-09 01:45:00,
2013-02-08 17:51:00,39.7,24.5,30.03,SSW,203,0.0,0.0,54,0.00,,---,0.00,VWS V14.01,2013-02-09 01:51:00,
2013-02-08 17:57:00,39.4,24.6,30.03,SSW,203,0.0,0.0,55,0.00,,---,0.00,VWS V14.01,2013-02-09 01:57:00,
2013-02-08 18:03:00,39.2,24.4,30.03,SSW,203,0.0,0.0,55,0.00,,---,0.00,VWS V14.01,2013-02-09 02:03:00,
2013-02-08 18:09:00,39.0,25.1,30.00,SSW,203,0.0,0.0,57,0.00,,---,0.00,VWS V14.01,2013-02-09 02:09:00,
2013-02-08 18:15:00,38.7,24.8,30.00,SSW,203,0.0,0.0,57,0.00,,---,0.00,VWS V14.01,2013-02-09 02:15:00,
2013-02-08 18:22:00,38.5,25.0,30.00,SSW,203,0.0,0.0,58,0.00,,---,0.00,VWS V14.01,2013-02-09 02:22:00,
2013-02-08 18:27:00,38.3,24.8,30.00,SSW,203,0.0,0.0,58,0.00,,---,0.00,VWS V14.01,2013-02-09 02:27:00,
2013-02-08 18:33:00,38.1,24.7,30.00,SSW,203,0.0,0.0,58,0.00,,---,0.00,VWS V14.01,2013-02-09 02:33:00,
2013-02-08 18:39:00,37.9,24.9,30.00,SSW,204,0.0,0.0,59,0.00,,---,0.00,VWS V14.01,2013-02-09 02:39:00,
2013-02-08 18:46:00,37.9,25.3,30.00,SSW,203,0.0,0.0,60,0.00,,---,0.00,VWS V14.01,2013-02-09 02:46:00,
2013-02-08 18:51:00,37.9,25.7,30.00,SSW,203,0.0,0.0,61,0.00,,---,0.00,VWS V14.01,2013-02-09 02:51:00,
2013-02-08 18:57:00,37.9,25.7,30.00,SSW,203,0.0,0.0,61,0.00,,---,0.00,VWS V14.01,2013-02-09 02:57:00,
2013-02-08 19:03:00,38.1,26.3,30.00,SSW,203,0.0,0.0,62,0.00,,---,0.00,VWS V14.01,2013-02-09 03:03:00,
2013-02-08 19:09:00,38.1,26.6,30.00,SSW,203,0.0,0.0,63,0.00,,---,0.00,VWS V14.01,2013-02-09 03:09:00,
2013-02-08 19:15:00,38.1,26.6,30.00,SSW,203,0.0,0.0,63,0.00,,---,0.00,VWS V14.01,2013-02-09 03:15:00,
2013-02-08 19:21:00,38.1,26.6,30.03,SSW,203,0.0,0.0,63,0.00,,---,0.00,VWS V14.01,2013-02-09 03:21:00,
2013-02-08 19:27:00,38.1,27.0,30.03,SSW,203,0.0,0.0,64,0.00,,---,0.00,VWS V14.01,2013-02-09 03:27:00,
2013-02-08 19:33:00,38.1,27.0,30.03,SSW,203,0.0,0.0,64,0.00,,---,0.00,VWS V14.01,2013-02-09 03:33:00,
2013-02-08 19:39:00,38.1,27.0,30.03,SSW,203,0.0,0.0,64,0.00,,---,0.00,VWS V14.01,2013-02-09 03:39:00,
2013-02-08 19:45:00,38.1,27.4,30.03,SSW,203,0.0,0.0,65,0.00,,---,0.00,VWS V14.01,2013-02-09 03:45:00,
2013-02-08 19:51:00,38.1,27.4,30.03,SSW,203,0.0,0.0,65,0.00,,---,0.00,VWS V14.01,2013-02-09 03:51:00,
2013-02-08 19:57:00,38.1,27.4,30.03,SSW,203,0.0,0.0,65,0.00,,---,0.00,VWS V14.01,2013-02-09 03:57:00,
2013-02-08 20:03:00,37.9,27.2,30.03,SSW,203,0.0,0.0,65,0.00,,---,0.00,VWS V14.01,2013-02-09 04:03:00,
2013-02-08 20:09:00,37.9,27.6,30.03,SSW,203,0.0,0.0,66,0.00,,---,0.00,VWS V14.01,2013-02-09 04:09:00,
2013-02-08 20:15:00,37.9,27.6,30.03,SSW,203,0.0,0.0,66,0.00,,---,0.00,VWS V14.01,2013-02-09 04:15:00,
2013-02-08 20:21:00,37.9,27.6,30.03,SSW,203,0.0,0.0,66,0.00,,---,0.00,VWS V14.01,2013-02-09 04:21:00,
2013-02-08 20:28:00,37.9,27.6,30.03,SSW,203,0.0,0.0,66,0.00,,---,0.00,VWS V14.01,2013-02-09 04:28:00,
2013-02-08 20:33:00,37.9,28.0,30.03,SSW,203,0.0,0.0,67,0.00,,---,0.00,VWS V14.01,2013-02-09 04:33:00,
2013-02-08 20:39:00,37.9,28.0,30.03,SSW,203,0.0,0.0,67,0.00,,---,0.00,VWS V14.01,2013-02-09 04:39:00,
2013-02-08 20:45:00,37.9,28.0,30.03,SSW,203,0.0,0.0,67,0.00,,---,0.00,VWS V14.01,2013-02-09 04:45:00,
2013-02-08 20:52:00,37.9,28.0,30.03,SSW,203,0.0,0.0,67,0.00,,---,0.00,VWS V14.01,2013-02-09 04:52:00,
2013-02-08 20:57:00,37.9,28.0,30.03,SSW,203,0.0,0.0,67,0.00,,---,0.00,VWS V14.01,2013-02-09 04:57:00,
2013-02-08 21:01:00,37.9,28.0,30.03,SSW,203,0.0,0.0,67,0.00,,---,0.00,VWS V14.01,2013-02-09 05:01:00,
2013-02-08 21:05:00,37.9,28.0,30.03,SSW,204,0.0,0.0,67,0.00,,---,0.00,VWS V14.01,2013-02-09 05:05:00,
2013-02-08 21:07:00,37.9,28.0,30.03,SSW,203,0.0,0.0,67,0.00,,---,0.00,VWS V14.01,2013-02-09 05:07:00,
2013-02-08 21:13:00,37.9,28.3,30.03,SSW,203,0.0,0.0,68,0.00,,---,0.00,VWS V14.01,2013-02-09 05:13:00,
2013-02-08 21:17:00,37.9,28.3,30.03,SSW,203,0.0,0.0,68,0.00,,---,0.00,VWS V14.01,2013-02-09 05:17:00,
2013-02-08 21:23:00,37.9,28.3,30.03,SSW,203,0.0,0.0,68,0.00,,---,0.00,VWS V14.01,2013-02-09 05:23:00,
2013-02-08 21:29:00,37.9,28.3,30.03,SSW,204,0.0,0.0,68,0.00,,---,0.00,VWS V14.01,2013-02-09 05:29:00,
2013-02-08 21:35:00,37.8,28.2,30.03,SSW,204,0.0,0.0,68,0.00,,---,0.00,VWS V14.01,2013-02-09 05:35:00,
2013-02-08 21:41:00,37.8,28.2,30.03,SSW,203,0.0,0.0,68,0.00,,---,0.00,VWS V14.01,2013-02-09 05:41:00,
2013-02-08 21:47:00,37.8,28.2,30.03,SSW,203,0.0,0.0,68,0.00,,---,0.00,VWS V14.01,2013-02-09 05:47:00,
2013-02-08 21:53:00,37.8,28.5,30.03,SSW,203,0.0,0.0,69,0.00,,---,0.00,VWS V14.01,2013-02-09 05:53:00,
2013-02-08 21:59:00,37.8,28.5,30.03,SSW,203,0.0,0.0,69,0.00,,---,0.00,VWS V14.01,2013-02-09 05:59:00,
2013-02-08 22:05:00,37.8,28.5,30.03,SSW,203,0.0,0.0,69,0.00,,---,0.00,VWS V14.01,2013-02-09 06:05:00,
2013-02-08 22:12:00,37.8,28.5,30.03,SSW,203,0.0,0.0,69,0.00,,---,0.00,VWS V14.01,2013-02-09 06:12:00,
2013-02-08 22:17:00,37.8,28.9,30.03,SSW,203,0.0,0.0,70,0.00,,---,0.00,VWS V14.01,2013-02-09 06:17:00,
2013-02-08 22:23:00,37.8,28.9,30.03,SSW,203,0.0,0.0,70,0.00,,---,0.00,VWS V14.01,2013-02-09 06:23:00,
2013-02-08 22:30:00,37.6,28.7,30.03,SSW,203,0.0,0.0,70,0.00,,---,0.00,VWS V14.01,2013-02-09 06:30:00,
2013-02-08 22:35:00,37.6,29.0,30.03,SSW,203,0.0,0.0,71,0.00,,---,0.00,VWS V14.01,2013-02-09 06:35:00,
2013-02-08 22:41:00,37.6,29.0,30.03,SSW,203,0.0,0.0,71,0.00,,---,0.00,VWS V14.01,2013-02-09 06:41:00,
2013-02-08 22:47:00,37.6,29.0,30.03,SSW,203,0.0,0.0,71,0.00,,---,0.00,VWS V14.01,2013-02-09 06:47:00,
2013-02-08 22:53:00,37.6,29.0,30.03,SSW,203,0.0,0.0,71,0.00,,---,0.00,VWS V14.01,2013-02-09 06:53:00,
2013-02-08 22:59:00,37.8,29.2,30.03,SSW,203,0.0,0.0,71,0.00,,---,0.00,VWS V14.01,2013-02-09 06:59:00,
2013-02-08 23:05:00,37.8,29.6,30.03,SSW,203,0.0,0.0,72,0.00,,---,0.00,VWS V14.01,2013-02-09 07:05:00,
2013-02-08 23:11:00,37.8,29.6,30.03,SSW,203,0.0,0.0,72,0.00,,---,0.00,VWS V14.01,2013-02-09 07:11:00,
2013-02-08 23:17:00,37.8,29.6,30.03,SSW,203,0.0,0.0,72,0.00,,---,0.00,VWS V14.01,2013-02-09 07:17:00,
2013-02-08 23:23:00,37.8,29.6,30.03,SSW,204,0.0,0.0,72,0.00,,---,0.00,VWS V14.01,2013-02-09 07:23:00,
2013-02-08 23:29:00,37.8,29.6,30.03,SSW,203,0.0,0.0,72,0.00,,---,0.00,VWS V14.01,2013-02-09 07:29:00,
2013-02-08 23:36:00,37.8,29.6,30.03,SSW,203,0.0,0.0,72,0.00,,---,0.00,VWS V14.01,2013-02-09 07:36:00,
2013-02-08 23:41:00,37.6,29.4,30.03,SSW,203,0.0,0.0,72,0.00,,---,0.00,VWS V14.01,2013-02-09 07:41:00,
2013-02-08 23:47:00,37.8,29.6,30.03,SSW,203,0.0,0.0,72,0.00,,---,0.00,VWS V14.01,2013-02-09 07:47:00,
2013-02-08 23:53:00,37.6,29.4,30.03,SSW,203,0.0,0.0,72,0.00,,---,0.00,VWS V14.01,2013-02-09 07:53:00,
2013-02-08 23:59:00,37.6,29.4,30.03,SSW,203,0.0,0.0,72,0.00,,---,0.00,VWS V14.01,2013-02-09 07:59:00,